Flight Briefing for CPX216

Departure Arrival
Chicago/Rockford International Airport (KRFD)
Click to view FAA NOTAMS
Sacramento International Airport (KSMF)
Click to view FAA NOTAMS
Departure Time Arrival Time
2330 UTC 0340 UTC
Aircraft Distance
B767-300BDSF 1511nm
Departure METAR Arrival METAR
KRFD 221054Z 31006KT 10SM CLR 01/M02 A3002 RMK AO2 SLP171 T00111017 KSMF 221053Z 14008KT 10SM CLR 08/06 A3013 RMK AO2 SLP202 T00830061
Suggested Route
DBQ J94 BFF J157 LAR TCH J154 BAM J94 LLC ANAHO SLMMR3


View recent IFR Routes data
Notes



Charts and Procedures

Charts for KRFD
No chart available
Charts for KSMF
No chart available

Windy.com Weather Map